sensor_id;sensor_type;location;lat;lon;timestamp;P1;durP1;ratioP1;P2;durP2;ratioP2
51216;SDS011;37283;49.760;8.648;2023-12-22T00:01:00;1.85;;;0.43;;
51216;SDS011;37283;49.760;8.648;2023-12-22T00:03:26;0.47;;;0.35;;
51216;SDS011;37283;49.760;8.648;2023-12-22T00:05:53;1.25;;;0.40;;
51216;SDS011;37283;49.760;8.648;2023-12-22T00:08:19;0.40;;;0.38;;
51216;SDS011;37283;49.760;8.648;2023-12-22T00:10:46;1.08;;;0.40;;
51216;SDS011;37283;49.760;8.648;2023-12-22T00:13:13;1.00;;;0.40;;
51216;SDS011;37283;49.760;8.648;2023-12-22T00:15:40;0.88;;;0.28;;
51216;SDS011;37283;49.760;8.648;2023-12-22T00:18:06;0.98;;;0.40;;
51216;SDS011;37283;49.760;8.648;2023-12-22T00:20:33;1.60;;;0.47;;
51216;SDS011;37283;49.760;8.648;2023-12-22T00:23:00;1.63;;;0.60;;
51216;SDS011;37283;49.760;8.648;2023-12-22T00:25:27;1.58;;;0.50;;
51216;SDS011;37283;49.760;8.648;2023-12-22T00:27:53;1.20;;;0.63;;
51216;SDS011;37283;49.760;8.648;2023-12-22T00:30:20;1.08;;;0.40;;
51216;SDS011;37283;49.760;8.648;2023-12-22T00:32:46;1.48;;;0.40;;
51216;SDS011;37283;49.760;8.648;2023-12-22T00:35:13;0.98;;;0.43;;
51216;SDS011;37283;49.760;8.648;2023-12-22T00:37:39;1.08;;;0.50;;
51216;SDS011;37283;49.760;8.648;2023-12-22T00:40:06;1.20;;;0.40;;
51216;SDS011;37283;49.760;8.648;2023-12-22T00:42:35;1.20;;;0.45;;
51216;SDS011;37283;49.760;8.648;2023-12-22T00:45:02;0.60;;;0.30;;
51216;SDS011;37283;49.760;8.648;2023-12-22T00:47:28;0.70;;;0.40;;
51216;SDS011;37283;49.760;8.648;2023-12-22T00:49:55;0.88;;;0.32;;
51216;SDS011;37283;49.760;8.648;2023-12-22T00:52:22;0.28;;;0.22;;
51216;SDS011;37283;49.760;8.648;2023-12-22T00:54:48;1.45;;;0.40;;
51216;SDS011;37283;49.760;8.648;2023-12-22T00:57:15;1.10;;;0.30;;
51216;SDS011;37283;49.760;8.648;2023-12-22T00:59:42;0.65;;;0.43;;
51216;SDS011;37283;49.760;8.648;2023-12-22T01:02:17;1.52;;;0.30;;
51216;SDS011;37283;49.760;8.648;2023-12-22T01:04:44;2.53;;;0.85;;
51216;SDS011;37283;49.760;8.648;2023-12-22T01:07:11;1.13;;;0.43;;
51216;SDS011;37283;49.760;8.648;2023-12-22T01:09:37;2.58;;;0.52;;
51216;SDS011;37283;49.760;8.648;2023-12-22T01:12:04;2.15;;;0.40;;
51216;SDS011;37283;49.760;8.648;2023-12-22T01:14:32;1.07;;;0.40;;
51216;SDS011;37283;49.760;8.648;2023-12-22T01:17:00;0.93;;;0.47;;
51216;SDS011;37283;49.760;8.648;2023-12-22T01:19:27;2.22;;;0.40;;
51216;SDS011;37283;49.760;8.648;2023-12-22T01:21:54;0.63;;;0.30;;
51216;SDS011;37283;49.760;8.648;2023-12-22T01:24:20;0.40;;;0.30;;
51216;SDS011;37283;49.760;8.648;2023-12-22T01:26:47;2.75;;;0.40;;
51216;SDS011;37283;49.760;8.648;2023-12-22T01:29:13;0.75;;;0.40;;
51216;SDS011;37283;49.760;8.648;2023-12-22T01:31:40;1.25;;;0.50;;
51216;SDS011;37283;49.760;8.648;2023-12-22T01:34:07;0.57;;;0.30;;
51216;SDS011;37283;49.760;8.648;2023-12-22T01:36:34;1.05;;;0.40;;
51216;SDS011;37283;49.760;8.648;2023-12-22T01:39:00;0.30;;;0.30;;
51216;SDS011;37283;49.760;8.648;2023-12-22T01:41:27;2.72;;;0.30;;
51216;SDS011;37283;49.760;8.648;2023-12-22T01:43:54;1.27;;;0.50;;
51216;SDS011;37283;49.760;8.648;2023-12-22T01:46:20;1.67;;;0.45;;
51216;SDS011;37283;49.760;8.648;2023-12-22T01:48:47;1.55;;;0.50;;
51216;SDS011;37283;49.760;8.648;2023-12-22T01:51:14;2.72;;;0.60;;
51216;SDS011;37283;49.760;8.648;2023-12-22T01:53:41;1.98;;;0.57;;
51216;SDS011;37283;49.760;8.648;2023-12-22T01:56:07;2.42;;;0.50;;
51216;SDS011;37283;49.760;8.648;2023-12-22T01:58:34;1.45;;;0.40;;
51216;SDS011;37283;49.760;8.648;2023-12-22T02:01:13;2.78;;;0.50;;
51216;SDS011;37283;49.760;8.648;2023-12-22T02:03:39;0.90;;;0.43;;
51216;SDS011;37283;49.760;8.648;2023-12-22T02:06:06;1.92;;;0.50;;
51216;SDS011;37283;49.760;8.648;2023-12-22T02:08:33;1.80;;;0.50;;
51216;SDS011;37283;49.760;8.648;2023-12-22T02:11:00;1.48;;;0.52;;
51216;SDS011;37283;49.760;8.648;2023-12-22T02:13:27;0.52;;;0.38;;
51216;SDS011;37283;49.760;8.648;2023-12-22T02:15:56;2.92;;;0.77;;
51216;SDS011;37283;49.760;8.648;2023-12-22T02:18:30;2.08;;;0.70;;
51216;SDS011;37283;49.760;8.648;2023-12-22T02:21:00;1.73;;;0.60;;
51216;SDS011;37283;49.760;8.648;2023-12-22T02:23:28;2.38;;;0.45;;
51216;SDS011;37283;49.760;8.648;2023-12-22T02:25:56;2.83;;;0.50;;
51216;SDS011;37283;49.760;8.648;2023-12-22T02:28:28;2.38;;;0.88;;
51216;SDS011;37283;49.760;8.648;2023-12-22T02:31:02;1.15;;;0.65;;
51216;SDS011;37283;49.760;8.648;2023-12-22T02:33:32;3.03;;;0.75;;
51216;SDS011;37283;49.760;8.648;2023-12-22T02:36:03;3.05;;;0.50;;
51216;SDS011;37283;49.760;8.648;2023-12-22T02:38:30;1.80;;;0.45;;
51216;SDS011;37283;49.760;8.648;2023-12-22T02:40:58;3.05;;;0.85;;
51216;SDS011;37283;49.760;8.648;2023-12-22T02:43:25;4.78;;;0.70;;
51216;SDS011;37283;49.760;8.648;2023-12-22T02:45:51;1.77;;;0.65;;
51216;SDS011;37283;49.760;8.648;2023-12-22T02:48:18;2.35;;;0.63;;
51216;SDS011;37283;49.760;8.648;2023-12-22T02:50:45;3.58;;;0.60;;
51216;SDS011;37283;49.760;8.648;2023-12-22T02:53:11;2.65;;;0.75;;
51216;SDS011;37283;49.760;8.648;2023-12-22T02:55:38;3.72;;;0.73;;
51216;SDS011;37283;49.760;8.648;2023-12-22T02:58:05;5.18;;;0.68;;
51216;SDS011;37283;49.760;8.648;2023-12-22T03:00:31;4.22;;;0.68;;
51216;SDS011;37283;49.760;8.648;2023-12-22T03:02:58;2.40;;;0.60;;
51216;SDS011;37283;49.760;8.648;2023-12-22T03:05:24;9.10;;;1.45;;
51216;SDS011;37283;49.760;8.648;2023-12-22T03:07:51;5.32;;;0.80;;
51216;SDS011;37283;49.760;8.648;2023-12-22T03:10:18;5.82;;;0.70;;
51216;SDS011;37283;49.760;8.648;2023-12-22T03:12:45;4.75;;;0.90;;
51216;SDS011;37283;49.760;8.648;2023-12-22T03:15:11;4.75;;;0.80;;
51216;SDS011;37283;49.760;8.648;2023-12-22T03:17:38;4.10;;;0.77;;
51216;SDS011;37283;49.760;8.648;2023-12-22T03:20:05;2.50;;;0.75;;
51216;SDS011;37283;49.760;8.648;2023-12-22T03:22:31;2.05;;;0.68;;
51216;SDS011;37283;49.760;8.648;2023-12-22T03:24:58;1.58;;;0.73;;
51216;SDS011;37283;49.760;8.648;2023-12-22T03:27:25;4.68;;;1.10;;
51216;SDS011;37283;49.760;8.648;2023-12-22T03:29:51;3.92;;;1.02;;
51216;SDS011;37283;49.760;8.648;2023-12-22T03:32:18;3.45;;;0.90;;
51216;SDS011;37283;49.760;8.648;2023-12-22T03:34:45;5.30;;;1.10;;
51216;SDS011;37283;49.760;8.648;2023-12-22T03:37:12;2.58;;;0.90;;
51216;SDS011;37283;49.760;8.648;2023-12-22T03:39:38;2.95;;;1.00;;
51216;SDS011;37283;49.760;8.648;2023-12-22T03:42:05;3.67;;;0.98;;
51216;SDS011;37283;49.760;8.648;2023-12-22T03:44:31;4.85;;;1.48;;
51216;SDS011;37283;49.760;8.648;2023-12-22T03:46:58;3.30;;;0.90;;
51216;SDS011;37283;49.760;8.648;2023-12-22T03:49:24;5.20;;;1.23;;
51216;SDS011;37283;49.760;8.648;2023-12-22T03:51:51;2.53;;;1.00;;
51216;SDS011;37283;49.760;8.648;2023-12-22T03:54:18;5.68;;;1.20;;
51216;SDS011;37283;49.760;8.648;2023-12-22T03:56:45;3.85;;;1.02;;
51216;SDS011;37283;49.760;8.648;2023-12-22T03:59:11;3.63;;;1.00;;
51216;SDS011;37283;49.760;8.648;2023-12-22T04:01:39;2.53;;;0.80;;
51216;SDS011;37283;49.760;8.648;2023-12-22T04:04:06;4.72;;;1.02;;
51216;SDS011;37283;49.760;8.648;2023-12-22T04:06:32;6.88;;;1.40;;
51216;SDS011;37283;49.760;8.648;2023-12-22T04:09:03;4.90;;;1.08;;
51216;SDS011;37283;49.760;8.648;2023-12-22T04:11:29;3.92;;;0.75;;
51216;SDS011;37283;49.760;8.648;2023-12-22T04:13:56;4.70;;;1.00;;
51216;SDS011;37283;49.760;8.648;2023-12-22T04:16:22;5.10;;;1.25;;
51216;SDS011;37283;49.760;8.648;2023-12-22T04:18:49;5.72;;;1.05;;
51216;SDS011;37283;49.760;8.648;2023-12-22T04:21:15;5.15;;;0.93;;
51216;SDS011;37283;49.760;8.648;2023-12-22T04:23:42;4.28;;;1.25;;
51216;SDS011;37283;49.760;8.648;2023-12-22T04:26:08;3.80;;;0.90;;
51216;SDS011;37283;49.760;8.648;2023-12-22T04:28:35;3.50;;;0.90;;
51216;SDS011;37283;49.760;8.648;2023-12-22T04:31:02;3.08;;;0.90;;
51216;SDS011;37283;49.760;8.648;2023-12-22T04:33:29;4.60;;;0.88;;
51216;SDS011;37283;49.760;8.648;2023-12-22T04:35:56;3.58;;;0.73;;
51216;SDS011;37283;49.760;8.648;2023-12-22T04:38:22;3.13;;;0.80;;
51216;SDS011;37283;49.760;8.648;2023-12-22T04:40:49;2.88;;;0.70;;
51216;SDS011;37283;49.760;8.648;2023-12-22T04:43:16;2.40;;;0.80;;
51216;SDS011;37283;49.760;8.648;2023-12-22T04:45:42;3.20;;;0.73;;
51216;SDS011;37283;49.760;8.648;2023-12-22T04:48:09;3.05;;;0.95;;
51216;SDS011;37283;49.760;8.648;2023-12-22T04:50:36;2.63;;;0.70;;
51216;SDS011;37283;49.760;8.648;2023-12-22T04:53:02;2.40;;;0.60;;
51216;SDS011;37283;49.760;8.648;2023-12-22T04:55:29;2.83;;;0.70;;
51216;SDS011;37283;49.760;8.648;2023-12-22T04:57:56;3.25;;;0.65;;
51216;SDS011;37283;49.760;8.648;2023-12-22T05:00:22;1.92;;;0.85;;
51216;SDS011;37283;49.760;8.648;2023-12-22T05:02:49;1.98;;;0.57;;
51216;SDS011;37283;49.760;8.648;2023-12-22T05:05:15;2.35;;;0.70;;
51216;SDS011;37283;49.760;8.648;2023-12-22T05:07:42;3.65;;;0.85;;
51216;SDS011;37283;49.760;8.648;2023-12-22T05:10:09;5.35;;;0.85;;
51216;SDS011;37283;49.760;8.648;2023-12-22T05:12:35;3.53;;;1.00;;
51216;SDS011;37283;49.760;8.648;2023-12-22T05:15:02;1.90;;;0.80;;
51216;SDS011;37283;49.760;8.648;2023-12-22T05:17:29;4.35;;;1.25;;
51216;SDS011;37283;49.760;8.648;2023-12-22T05:19:56;3.65;;;1.10;;
51216;SDS011;37283;49.760;8.648;2023-12-22T05:22:22;3.88;;;1.33;;
51216;SDS011;37283;49.760;8.648;2023-12-22T05:24:49;4.35;;;0.95;;
51216;SDS011;37283;49.760;8.648;2023-12-22T05:27:17;4.00;;;1.17;;
51216;SDS011;37283;49.760;8.648;2023-12-22T05:29:44;3.70;;;1.13;;
51216;SDS011;37283;49.760;8.648;2023-12-22T05:32:11;3.00;;;1.00;;
51216;SDS011;37283;49.760;8.648;2023-12-22T05:34:37;4.55;;;1.52;;
51216;SDS011;37283;49.760;8.648;2023-12-22T05:37:04;4.03;;;1.40;;
51216;SDS011;37283;49.760;8.648;2023-12-22T05:39:30;5.18;;;1.27;;
51216;SDS011;37283;49.760;8.648;2023-12-22T05:41:58;6.60;;;1.20;;
51216;SDS011;37283;49.760;8.648;2023-12-22T05:44:24;5.57;;;1.05;;
51216;SDS011;37283;49.760;8.648;2023-12-22T05:46:56;5.82;;;1.98;;
51216;SDS011;37283;49.760;8.648;2023-12-22T05:49:23;4.95;;;1.13;;
51216;SDS011;37283;49.760;8.648;2023-12-22T05:51:49;6.65;;;1.63;;
51216;SDS011;37283;49.760;8.648;2023-12-22T05:54:16;3.17;;;0.90;;
51216;SDS011;37283;49.760;8.648;2023-12-22T05:56:45;7.13;;;1.63;;
51216;SDS011;37283;49.760;8.648;2023-12-22T05:59:12;3.63;;;1.00;;
51216;SDS011;37283;49.760;8.648;2023-12-22T06:01:38;7.03;;;1.00;;
51216;SDS011;37283;49.760;8.648;2023-12-22T06:04:05;5.72;;;1.05;;
51216;SDS011;37283;49.760;8.648;2023-12-22T06:06:32;5.05;;;1.33;;
51216;SDS011;37283;49.760;8.648;2023-12-22T06:08:58;6.15;;;1.40;;
51216;SDS011;37283;49.760;8.648;2023-12-22T06:11:25;6.90;;;1.17;;
51216;SDS011;37283;49.760;8.648;2023-12-22T06:13:51;6.72;;;1.60;;
51216;SDS011;37283;49.760;8.648;2023-12-22T06:16:18;5.45;;;2.30;;
51216;SDS011;37283;49.760;8.648;2023-12-22T06:18:46;6.43;;;1.80;;
51216;SDS011;37283;49.760;8.648;2023-12-22T06:21:13;7.43;;;2.20;;
51216;SDS011;37283;49.760;8.648;2023-12-22T06:23:41;7.15;;;1.40;;
51216;SDS011;37283;49.760;8.648;2023-12-22T06:26:08;7.07;;;1.52;;
51216;SDS011;37283;49.760;8.648;2023-12-22T06:28:36;6.10;;;1.65;;
51216;SDS011;37283;49.760;8.648;2023-12-22T06:31:04;7.18;;;1.77;;
51216;SDS011;37283;49.760;8.648;2023-12-22T06:33:30;6.80;;;2.08;;
51216;SDS011;37283;49.760;8.648;2023-12-22T06:35:57;6.28;;;1.45;;
51216;SDS011;37283;49.760;8.648;2023-12-22T06:38:24;5.88;;;1.60;;
51216;SDS011;37283;49.760;8.648;2023-12-22T06:40:50;3.72;;;1.38;;
51216;SDS011;37283;49.760;8.648;2023-12-22T06:43:17;6.65;;;1.50;;
51216;SDS011;37283;49.760;8.648;2023-12-22T06:45:43;5.93;;;1.45;;
51216;SDS011;37283;49.760;8.648;2023-12-22T06:48:10;6.10;;;1.80;;
51216;SDS011;37283;49.760;8.648;2023-12-22T06:50:37;8.00;;;1.50;;
51216;SDS011;37283;49.760;8.648;2023-12-22T06:53:06;7.03;;;1.70;;
51216;SDS011;37283;49.760;8.648;2023-12-22T06:55:47;4.90;;;1.15;;
51216;SDS011;37283;49.760;8.648;2023-12-22T06:58:13;7.28;;;1.52;;
51216;SDS011;37283;49.760;8.648;2023-12-22T07:00:40;6.80;;;2.50;;
51216;SDS011;37283;49.760;8.648;2023-12-22T07:03:07;6.28;;;1.60;;
51216;SDS011;37283;49.760;8.648;2023-12-22T07:05:34;8.38;;;1.73;;
51216;SDS011;37283;49.760;8.648;2023-12-22T07:08:03;6.30;;;2.00;;
51216;SDS011;37283;49.760;8.648;2023-12-22T07:10:29;6.63;;;2.20;;
51216;SDS011;37283;49.760;8.648;2023-12-22T07:12:56;4.68;;;1.70;;
51216;SDS011;37283;49.760;8.648;2023-12-22T07:15:22;7.82;;;1.88;;
51216;SDS011;37283;49.760;8.648;2023-12-22T07:17:49;8.27;;;2.00;;
51216;SDS011;37283;49.760;8.648;2023-12-22T07:20:16;11.80;;;2.03;;
51216;SDS011;37283;49.760;8.648;2023-12-22T07:22:44;4.88;;;1.70;;
51216;SDS011;37283;49.760;8.648;2023-12-22T07:25:11;8.73;;;2.55;;
51216;SDS011;37283;49.760;8.648;2023-12-22T07:27:40;9.75;;;2.05;;
51216;SDS011;37283;49.760;8.648;2023-12-22T07:30:07;8.63;;;2.13;;
51216;SDS011;37283;49.760;8.648;2023-12-22T07:32:34;11.68;;;3.08;;
51216;SDS011;37283;49.760;8.648;2023-12-22T07:35:00;9.15;;;2.42;;
51216;SDS011;37283;49.760;8.648;2023-12-22T07:37:27;9.43;;;2.22;;
51216;SDS011;37283;49.760;8.648;2023-12-22T07:39:54;11.23;;;2.25;;
51216;SDS011;37283;49.760;8.648;2023-12-22T07:42:21;10.82;;;2.22;;
51216;SDS011;37283;49.760;8.648;2023-12-22T07:44:48;7.85;;;1.80;;
51216;SDS011;37283;49.760;8.648;2023-12-22T07:47:14;8.63;;;2.20;;
51216;SDS011;37283;49.760;8.648;2023-12-22T07:49:41;9.48;;;1.90;;
51216;SDS011;37283;49.760;8.648;2023-12-22T07:52:08;8.18;;;2.17;;
51216;SDS011;37283;49.760;8.648;2023-12-22T07:54:35;8.73;;;1.92;;
51216;SDS011;37283;49.760;8.648;2023-12-22T07:57:02;13.10;;;2.58;;
51216;SDS011;37283;49.760;8.648;2023-12-22T07:59:29;11.73;;;2.10;;
51216;SDS011;37283;49.760;8.648;2023-12-22T08:01:57;9.45;;;2.47;;
51216;SDS011;37283;49.760;8.648;2023-12-22T08:04:24;9.85;;;2.83;;
51216;SDS011;37283;49.760;8.648;2023-12-22T08:06:51;9.48;;;1.98;;
51216;SDS011;37283;49.760;8.648;2023-12-22T08:09:18;8.68;;;3.13;;
51216;SDS011;37283;49.760;8.648;2023-12-22T08:11:45;7.95;;;2.50;;
51216;SDS011;37283;49.760;8.648;2023-12-22T08:14:13;15.27;;;5.75;;
51216;SDS011;37283;49.760;8.648;2023-12-22T08:16:40;11.82;;;4.07;;
51216;SDS011;37283;49.760;8.648;2023-12-22T08:19:06;26.88;;;12.20;;
51216;SDS011;37283;49.760;8.648;2023-12-22T08:21:33;13.98;;;5.95;;
51216;SDS011;37283;49.760;8.648;2023-12-22T08:24:11;10.20;;;3.50;;
51216;SDS011;37283;49.760;8.648;2023-12-22T08:26:47;8.75;;;4.70;;
51216;SDS011;37283;49.760;8.648;2023-12-22T08:29:14;7.32;;;3.63;;
51216;SDS011;37283;49.760;8.648;2023-12-22T08:31:42;5.35;;;2.33;;
51216;SDS011;37283;49.760;8.648;2023-12-22T08:34:10;13.80;;;8.00;;
51216;SDS011;37283;49.760;8.648;2023-12-22T08:36:36;11.55;;;6.82;;
51216;SDS011;37283;49.760;8.648;2023-12-22T08:39:03;5.22;;;2.03;;
51216;SDS011;37283;49.760;8.648;2023-12-22T08:41:32;9.50;;;2.85;;
51216;SDS011;37283;49.760;8.648;2023-12-22T08:44:03;4.70;;;1.77;;
51216;SDS011;37283;49.760;8.648;2023-12-22T08:46:31;6.72;;;2.40;;
51216;SDS011;37283;49.760;8.648;2023-12-22T08:48:57;3.45;;;1.45;;
51216;SDS011;37283;49.760;8.648;2023-12-22T08:51:26;3.90;;;1.55;;
51216;SDS011;37283;49.760;8.648;2023-12-22T08:53:53;5.05;;;1.30;;
51216;SDS011;37283;49.760;8.648;2023-12-22T08:56:21;4.30;;;1.30;;
51216;SDS011;37283;49.760;8.648;2023-12-22T08:58:48;4.40;;;1.42;;
51216;SDS011;37283;49.760;8.648;2023-12-22T09:03:45;5.15;;;1.27;;
51216;SDS011;37283;49.760;8.648;2023-12-22T09:06:20;3.53;;;1.38;;
51216;SDS011;37283;49.760;8.648;2023-12-22T09:08:48;4.35;;;1.75;;
51216;SDS011;37283;49.760;8.648;2023-12-22T09:11:16;5.45;;;1.80;;
51216;SDS011;37283;49.760;8.648;2023-12-22T09:13:43;5.50;;;1.48;;
51216;SDS011;37283;49.760;8.648;2023-12-22T09:16:10;4.97;;;1.50;;
51216;SDS011;37283;49.760;8.648;2023-12-22T09:18:37;5.68;;;1.20;;
51216;SDS011;37283;49.760;8.648;2023-12-22T09:21:04;5.22;;;1.52;;
51216;SDS011;37283;49.760;8.648;2023-12-22T09:23:31;4.88;;;1.55;;
51216;SDS011;37283;49.760;8.648;2023-12-22T09:25:58;6.93;;;1.80;;
51216;SDS011;37283;49.760;8.648;2023-12-22T09:28:25;5.28;;;1.20;;
51216;SDS011;37283;49.760;8.648;2023-12-22T09:30:51;4.18;;;1.00;;
51216;SDS011;37283;49.760;8.648;2023-12-22T09:33:18;5.88;;;1.63;;
51216;SDS011;37283;49.760;8.648;2023-12-22T09:35:45;5.28;;;1.50;;
51216;SDS011;37283;49.760;8.648;2023-12-22T09:38:12;7.18;;;1.90;;
51216;SDS011;37283;49.760;8.648;2023-12-22T09:40:39;6.57;;;1.85;;
51216;SDS011;37283;49.760;8.648;2023-12-22T09:43:06;8.55;;;2.08;;
51216;SDS011;37283;49.760;8.648;2023-12-22T09:45:33;10.32;;;2.10;;
51216;SDS011;37283;49.760;8.648;2023-12-22T09:48:00;12.95;;;2.72;;
51216;SDS011;37283;49.760;8.648;2023-12-22T09:50:28;10.52;;;2.28;;
51216;SDS011;37283;49.760;8.648;2023-12-22T09:52:55;14.02;;;2.45;;
51216;SDS011;37283;49.760;8.648;2023-12-22T09:55:22;10.85;;;2.45;;
51216;SDS011;37283;49.760;8.648;2023-12-22T09:57:49;11.20;;;3.10;;
51216;SDS011;37283;49.760;8.648;2023-12-22T10:00:16;13.95;;;2.60;;
51216;SDS011;37283;49.760;8.648;2023-12-22T10:02:43;10.18;;;2.38;;
51216;SDS011;37283;49.760;8.648;2023-12-22T10:05:11;11.13;;;2.40;;
51216;SDS011;37283;49.760;8.648;2023-12-22T10:07:41;15.27;;;2.90;;
51216;SDS011;37283;49.760;8.648;2023-12-22T10:10:11;14.18;;;3.08;;
51216;SDS011;37283;49.760;8.648;2023-12-22T10:12:38;11.55;;;2.55;;
51216;SDS011;37283;49.760;8.648;2023-12-22T10:15:06;12.38;;;3.40;;
51216;SDS011;37283;49.760;8.648;2023-12-22T10:17:34;13.93;;;3.17;;
51216;SDS011;37283;49.760;8.648;2023-12-22T10:20:02;19.50;;;4.55;;
51216;SDS011;37283;49.760;8.648;2023-12-22T10:22:30;14.25;;;2.83;;
51216;SDS011;37283;49.760;8.648;2023-12-22T10:24:56;13.40;;;2.97;;
51216;SDS011;37283;49.760;8.648;2023-12-22T10:27:23;13.35;;;3.67;;
51216;SDS011;37283;49.760;8.648;2023-12-22T10:29:51;17.58;;;3.47;;
51216;SDS011;37283;49.760;8.648;2023-12-22T10:32:20;18.85;;;3.60;;
51216;SDS011;37283;49.760;8.648;2023-12-22T10:34:48;18.77;;;3.92;;
51216;SDS011;37283;49.760;8.648;2023-12-22T10:37:18;13.55;;;3.08;;
51216;SDS011;37283;49.760;8.648;2023-12-22T10:39:44;14.00;;;3.10;;
51216;SDS011;37283;49.760;8.648;2023-12-22T10:42:15;13.65;;;3.63;;
51216;SDS011;37283;49.760;8.648;2023-12-22T10:44:42;13.93;;;2.88;;
51216;SDS011;37283;49.760;8.648;2023-12-22T10:47:08;11.65;;;2.88;;
51216;SDS011;37283;49.760;8.648;2023-12-22T10:49:35;19.15;;;4.07;;
51216;SDS011;37283;49.760;8.648;2023-12-22T10:52:02;15.55;;;2.92;;
51216;SDS011;37283;49.760;8.648;2023-12-22T10:54:29;15.45;;;3.15;;
51216;SDS011;37283;49.760;8.648;2023-12-22T10:56:59;14.13;;;3.25;;
51216;SDS011;37283;49.760;8.648;2023-12-22T10:59:29;17.10;;;3.75;;
51216;SDS011;37283;49.760;8.648;2023-12-22T11:02:01;14.43;;;2.92;;
51216;SDS011;37283;49.760;8.648;2023-12-22T11:04:29;17.13;;;3.30;;
51216;SDS011;37283;49.760;8.648;2023-12-22T11:07:00;16.92;;;3.40;;
51216;SDS011;37283;49.760;8.648;2023-12-22T11:09:31;19.05;;;3.45;;
51216;SDS011;37283;49.760;8.648;2023-12-22T11:11:58;14.63;;;3.10;;
51216;SDS011;37283;49.760;8.648;2023-12-22T11:14:27;12.15;;;3.25;;
51216;SDS011;37283;49.760;8.648;2023-12-22T11:16:55;17.25;;;3.42;;
51216;SDS011;37283;49.760;8.648;2023-12-22T11:19:22;14.35;;;3.90;;
51216;SDS011;37283;49.760;8.648;2023-12-22T11:21:49;15.75;;;4.00;;
51216;SDS011;37283;49.760;8.648;2023-12-22T11:24:17;16.23;;;3.60;;
51216;SDS011;37283;49.760;8.648;2023-12-22T11:26:44;14.05;;;3.40;;
51216;SDS011;37283;49.760;8.648;2023-12-22T11:29:12;15.23;;;3.15;;
51216;SDS011;37283;49.760;8.648;2023-12-22T11:31:38;17.05;;;4.38;;
51216;SDS011;37283;49.760;8.648;2023-12-22T11:34:07;18.00;;;4.15;;
51216;SDS011;37283;49.760;8.648;2023-12-22T11:36:40;14.23;;;3.67;;
51216;SDS011;37283;49.760;8.648;2023-12-22T11:39:08;16.25;;;4.05;;
51216;SDS011;37283;49.760;8.648;2023-12-22T11:41:35;18.35;;;4.38;;
51216;SDS011;37283;49.760;8.648;2023-12-22T11:44:04;19.25;;;3.75;;
51216;SDS011;37283;49.760;8.648;2023-12-22T11:46:31;15.82;;;4.38;;
51216;SDS011;37283;49.760;8.648;2023-12-22T11:48:59;16.52;;;4.53;;
51216;SDS011;37283;49.760;8.648;2023-12-22T11:51:30;17.13;;;3.67;;
51216;SDS011;37283;49.760;8.648;2023-12-22T11:54:00;17.73;;;3.60;;
51216;SDS011;37283;49.760;8.648;2023-12-22T11:56:28;15.85;;;3.92;;
51216;SDS011;37283;49.760;8.648;2023-12-22T11:58:55;14.75;;;3.65;;
51216;SDS011;37283;49.760;8.648;2023-12-22T12:01:25;13.80;;;3.40;;
51216;SDS011;37283;49.760;8.648;2023-12-22T12:03:56;12.02;;;3.83;;
51216;SDS011;37283;49.760;8.648;2023-12-22T12:08:52;18.35;;;3.92;;
51216;SDS011;37283;49.760;8.648;2023-12-22T12:11:20;14.93;;;4.07;;
51216;SDS011;37283;49.760;8.648;2023-12-22T12:13:47;16.20;;;3.72;;
51216;SDS011;37283;49.760;8.648;2023-12-22T12:16:15;15.95;;;4.20;;
51216;SDS011;37283;49.760;8.648;2023-12-22T12:18:47;10.55;;;3.55;;
51216;SDS011;37283;49.760;8.648;2023-12-22T12:21:14;17.65;;;3.53;;
51216;SDS011;37283;49.760;8.648;2023-12-22T12:23:42;16.13;;;3.42;;
51216;SDS011;37283;49.760;8.648;2023-12-22T12:26:08;15.07;;;3.85;;
51216;SDS011;37283;49.760;8.648;2023-12-22T12:28:35;14.23;;;3.00;;
51216;SDS011;37283;49.760;8.648;2023-12-22T12:31:04;19.63;;;4.13;;
51216;SDS011;37283;49.760;8.648;2023-12-22T12:33:33;15.32;;;3.63;;
51216;SDS011;37283;49.760;8.648;2023-12-22T12:36:02;19.80;;;3.58;;
51216;SDS011;37283;49.760;8.648;2023-12-22T12:41:30;14.07;;;2.95;;
51216;SDS011;37283;49.760;8.648;2023-12-22T12:44:01;11.15;;;3.10;;
51216;SDS011;37283;49.760;8.648;2023-12-22T12:46:39;12.45;;;2.60;;
51216;SDS011;37283;49.760;8.648;2023-12-22T12:49:09;10.02;;;2.20;;
51216;SDS011;37283;49.760;8.648;2023-12-22T12:51:44;7.53;;;2.00;;
51216;SDS011;37283;49.760;8.648;2023-12-22T12:54:14;6.95;;;1.90;;
51216;SDS011;37283;49.760;8.648;2023-12-22T12:56:41;10.25;;;2.53;;
51216;SDS011;37283;49.760;8.648;2023-12-22T12:59:11;7.82;;;2.05;;
51216;SDS011;37283;49.760;8.648;2023-12-22T13:01:47;5.03;;;1.42;;
51216;SDS011;37283;49.760;8.648;2023-12-22T13:04:14;5.47;;;1.60;;
51216;SDS011;37283;49.760;8.648;2023-12-22T13:09:11;5.60;;;1.73;;
51216;SDS011;37283;49.760;8.648;2023-12-22T13:11:40;8.30;;;1.67;;
51216;SDS011;37283;49.760;8.648;2023-12-22T13:14:09;5.00;;;1.48;;
51216;SDS011;37283;49.760;8.648;2023-12-22T13:16:36;5.25;;;1.30;;
51216;SDS011;37283;49.760;8.648;2023-12-22T13:19:04;19.33;;;11.13;;
51216;SDS011;37283;49.760;8.648;2023-12-22T13:21:31;6.30;;;2.33;;
51216;SDS011;37283;49.760;8.648;2023-12-22T13:24:14;3.20;;;1.30;;
51216;SDS011;37283;49.760;8.648;2023-12-22T13:26:44;3.10;;;1.60;;
51216;SDS011;37283;49.760;8.648;2023-12-22T13:29:12;2.88;;;1.40;;
51216;SDS011;37283;49.760;8.648;2023-12-22T13:31:39;2.88;;;1.42;;
51216;SDS011;37283;49.760;8.648;2023-12-22T13:34:10;3.25;;;1.20;;
51216;SDS011;37283;49.760;8.648;2023-12-22T13:36:37;3.65;;;1.25;;
51216;SDS011;37283;49.760;8.648;2023-12-22T13:39:04;4.25;;;1.10;;
51216;SDS011;37283;49.760;8.648;2023-12-22T13:41:35;2.72;;;0.95;;
51216;SDS011;37283;49.760;8.648;2023-12-22T13:44:06;2.40;;;1.00;;
51216;SDS011;37283;49.760;8.648;2023-12-22T13:46:33;1.70;;;0.80;;
51216;SDS011;37283;49.760;8.648;2023-12-22T13:49:03;3.97;;;1.30;;
51216;SDS011;37283;49.760;8.648;2023-12-22T13:51:40;3.35;;;1.98;;
51216;SDS011;37283;49.760;8.648;2023-12-22T13:54:07;3.08;;;1.73;;
51216;SDS011;37283;49.760;8.648;2023-12-22T13:56:34;3.28;;;1.42;;
51216;SDS011;37283;49.760;8.648;2023-12-22T13:59:06;2.85;;;0.85;;
51216;SDS011;37283;49.760;8.648;2023-12-22T14:01:33;2.20;;;0.80;;
51216;SDS011;37283;49.760;8.648;2023-12-22T14:04:00;1.98;;;0.80;;
51216;SDS011;37283;49.760;8.648;2023-12-22T14:06:28;1.35;;;0.55;;
51216;SDS011;37283;49.760;8.648;2023-12-22T14:08:55;1.55;;;0.60;;
51216;SDS011;37283;49.760;8.648;2023-12-22T14:11:22;1.33;;;0.70;;
51216;SDS011;37283;49.760;8.648;2023-12-22T14:13:49;1.15;;;0.60;;
51216;SDS011;37283;49.760;8.648;2023-12-22T14:16:15;1.92;;;0.60;;
51216;SDS011;37283;49.760;8.648;2023-12-22T14:18:42;2.05;;;0.88;;
51216;SDS011;37283;49.760;8.648;2023-12-22T14:21:09;1.55;;;0.95;;
51216;SDS011;37283;49.760;8.648;2023-12-22T14:23:35;1.58;;;0.80;;
51216;SDS011;37283;49.760;8.648;2023-12-22T14:26:02;2.15;;;0.60;;
51216;SDS011;37283;49.760;8.648;2023-12-22T14:28:29;2.15;;;0.95;;
51216;SDS011;37283;49.760;8.648;2023-12-22T14:30:56;2.50;;;1.00;;
51216;SDS011;37283;49.760;8.648;2023-12-22T14:33:22;1.77;;;0.95;;
51216;SDS011;37283;49.760;8.648;2023-12-22T14:35:49;1.00;;;0.77;;
51216;SDS011;37283;49.760;8.648;2023-12-22T14:38:15;2.05;;;1.23;;
51216;SDS011;37283;49.760;8.648;2023-12-22T14:40:42;1.25;;;0.80;;
51216;SDS011;37283;49.760;8.648;2023-12-22T14:43:09;1.13;;;0.55;;
51216;SDS011;37283;49.760;8.648;2023-12-22T14:45:35;1.67;;;0.80;;
51216;SDS011;37283;49.760;8.648;2023-12-22T14:48:02;2.47;;;0.80;;
51216;SDS011;37283;49.760;8.648;2023-12-22T14:50:28;2.75;;;1.00;;
51216;SDS011;37283;49.760;8.648;2023-12-22T14:52:55;1.73;;;0.80;;
51216;SDS011;37283;49.760;8.648;2023-12-22T14:55:22;0.73;;;0.50;;
51216;SDS011;37283;49.760;8.648;2023-12-22T14:57:49;1.25;;;0.80;;